CPX962 Details

Departure: Joint Base McGuire Dix Lakehurst (KWRI)
Arrival: Washington Dulles International Airport (KIAD)
Route: MXE
Notes: EMPTY | NON-REVENUE REPOSITIONING LEG


Current Weather Information
KWRI 181556Z AUTO 00000KT 10SM FEW085 06/M12 A3028 RMK AO2 SLP255 T00641117 $
KIAD 181552Z VRB03KT 10SM FEW038 BKN080 BKN220 07/M04 A3028 RMK AO2 SLP256 T00721044